ABG1511 UWUU-HESH
Flight info
| Callsign | ABG1511 |
|---|---|
| Flight time | N/A |
| Altitude | 34000 |
| Route | GAPM3N GAPMA T759 IDNID M158 DIMEG/N0451F340 M158 EKTEN/N0455F310 Z102 LULKE/N0450F350 Z102 UDEBA/N0449F340 N60 LOKOZ/N0448F340 N60 NIKNA/N0452F360 N60 PIRIM W324 AKT G96 PINMU A955 LURIS N37 SARPI UG67 TBN UW706 SIV UA285 ERCIS/N0446F360 UA285 SELVI/N0449F350 UA285 MUT UA28 DOREN N131 LCA M28 APLON L550 DATOK J981 NOVPA DCT |
| Aircraft | B739/M-SDE1FGHIJ1RWXYZ/LB1 |
Departure
| Time | 2026-04-22 13:00 |
|---|---|
| Airport | Ufa International Airport (UWUU) |
Arrival
| Time | N/A |
|---|---|
| Airport | Sharm El Sheikh International Airport (HESH) |
| Time | Latitude | Longitude | Altitude | Speed | Heading |
|---|---|---|---|---|---|
| 2026-04-22 12:28 | 54.56568 | 55.88343 | 460 ft | 0 kts | 60° |
| 2026-04-22 12:39 | 54.56562 | 55.88325 | 460 ft | 2 kts | 65° |
| 2026-04-22 12:40 | 54.56557 | 55.88299 | 460 ft | 2 kts | 77° |
| 2026-04-22 12:40 | 54.56555 | 55.88273 | 460 ft | 2 kts | 96° |
| 2026-04-22 12:40 | 54.56558 | 55.88251 | 460 ft | 2 kts | 127° |
| 2026-04-22 12:40 | 54.56569 | 55.88235 | 460 ft | 2 kts | 152° |
| 2026-04-22 12:41 | 54.56582 | 55.88223 | 460 ft | 2 kts | 152° |
| 2026-04-22 12:41 | 54.56591 | 55.88215 | 461 ft | 0 kts | 152° |
| 2026-04-22 12:46 | 54.56574 | 55.88231 | 461 ft | 5 kts | 152° |
| 2026-04-22 12:46 | 54.56525 | 55.88276 | 461 ft | 10 kts | 152° |
| 2026-04-22 12:46 | 54.56449 | 55.88347 | 461 ft | 11 kts | 152° |
| 2026-04-22 12:46 | 54.56411 | 55.88382 | 461 ft | 1 kts | 156° |
| 2026-04-22 12:47 | 54.56396 | 55.88372 | 461 ft | 3 kts | 231° |
| 2026-04-22 12:47 | 54.56383 | 55.88330 | 461 ft | 4 kts | 243° |
| 2026-04-22 12:47 | 54.56365 | 55.88271 | 461 ft | 7 kts | 243° |
| 2026-04-22 12:47 | 54.56340 | 55.88184 | 461 ft | 7 kts | 243° |
| 2026-04-22 12:48 | 54.56315 | 55.88100 | 461 ft | 8 kts | 243° |
| 2026-04-22 12:48 | 54.56292 | 55.88024 | 461 ft | 9 kts | 243° |
| 2026-04-22 12:48 | 54.56260 | 55.87919 | 461 ft | 10 kts | 242° |
| 2026-04-22 12:48 | 54.56230 | 55.87825 | 461 ft | 7 kts | 242° |
| 2026-04-22 12:49 | 54.56204 | 55.87739 | 461 ft | 11 kts | 242° |
| 2026-04-22 12:49 | 54.56161 | 55.87604 | 461 ft | 15 kts | 241° |
| 2026-04-22 12:49 | 54.56105 | 55.87431 | 461 ft | 10 kts | 241° |
| 2026-04-22 12:49 | 54.56065 | 55.87304 | 461 ft | 14 kts | 242° |
| 2026-04-22 12:50 | 54.56013 | 55.87138 | 461 ft | 14 kts | 241° |
| 2026-04-22 12:50 | 54.55967 | 55.86994 | 461 ft | 14 kts | 241° |
| 2026-04-22 12:50 | 54.55928 | 55.86869 | 461 ft | 9 kts | 242° |
| 2026-04-22 12:50 | 54.55892 | 55.86755 | 461 ft | 13 kts | 242° |
| 2026-04-22 12:51 | 54.55852 | 55.86625 | 461 ft | 6 kts | 242° |
| 2026-04-22 12:51 | 54.55843 | 55.86596 | 461 ft | 0 kts | 240° |
| 2026-04-22 12:51 | 54.55842 | 55.86596 | 461 ft | 0 kts | 240° |
| 2026-04-22 12:51 | 54.55842 | 55.86595 | 461 ft | 0 kts | 240° |
| 2026-04-22 12:52 | 54.55839 | 55.86584 | 461 ft | 3 kts | 240° |
| 2026-04-22 12:52 | 54.55820 | 55.86528 | 461 ft | 5 kts | 240° |
| 2026-04-22 12:52 | 54.55827 | 55.86453 | 461 ft | 9 kts | 316° |
| 2026-04-22 12:52 | 54.55893 | 55.86388 | 461 ft | 13 kts | 332° |
| 2026-04-22 12:53 | 54.55974 | 55.86313 | 461 ft | 13 kts | 332° |
| 2026-04-22 12:53 | 54.56052 | 55.86240 | 461 ft | 13 kts | 332° |
| 2026-04-22 12:53 | 54.56148 | 55.86150 | 461 ft | 18 kts | 331° |
| 2026-04-22 12:53 | 54.56269 | 55.86035 | 461 ft | 20 kts | 332° |
| 2026-04-22 12:54 | 54.56369 | 55.85944 | 461 ft | 13 kts | 331° |
| 2026-04-22 12:54 | 54.56447 | 55.85871 | 461 ft | 13 kts | 332° |
| 2026-04-22 12:54 | 54.56540 | 55.85783 | 461 ft | 18 kts | 331° |
| 2026-04-22 12:54 | 54.56639 | 55.85691 | 461 ft | 17 kts | 331° |
| 2026-04-22 12:55 | 54.56743 | 55.85592 | 461 ft | 12 kts | 332° |
| 2026-04-22 12:55 | 54.56832 | 55.85510 | 461 ft | 14 kts | 332° |
| 2026-04-22 12:55 | 54.56912 | 55.85436 | 461 ft | 12 kts | 332° |
| 2026-04-22 12:55 | 54.56987 | 55.85366 | 461 ft | 13 kts | 332° |
| 2026-04-22 12:56 | 54.57046 | 55.85310 | 461 ft | 7 kts | 332° |
| 2026-04-22 12:56 | 54.57104 | 55.85257 | 461 ft | 12 kts | 332° |
| 2026-04-22 12:56 | 54.57169 | 55.85197 | 461 ft | 8 kts | 331° |
| 2026-04-22 12:56 | 54.57231 | 55.85170 | 461 ft | 10 kts | 12° |
| 2026-04-22 12:57 | 54.57282 | 55.85172 | 461 ft | 6 kts | 327° |
| 2026-04-22 12:57 | 54.57286 | 55.85129 | 461 ft | 5 kts | 246° |
| 2026-04-22 12:57 | 54.57255 | 55.85107 | 461 ft | 6 kts | 162° |
| 2026-04-22 12:57 | 54.57225 | 55.85143 | 461 ft | 0 kts | 152° |
| 2026-04-22 12:58 | 54.57217 | 55.85150 | 461 ft | 0 kts | 150° |
| 2026-04-22 12:58 | 54.57215 | 55.85151 | 461 ft | 0 kts | 151° |
| 2026-04-22 12:58 | 54.57212 | 55.85154 | 461 ft | 5 kts | 152° |
| 2026-04-22 12:58 | 54.56993 | 55.85356 | 461 ft | 66 kts | 152° |
| 2026-04-22 12:59 | 54.56420 | 55.85891 | 461 ft | 120 kts | 148° |
| 2026-04-22 12:59 | 54.55536 | 55.86710 | 461 ft | 167 kts | 151° |
| 2026-04-22 12:59 | 54.54421 | 55.87769 | 503 ft | 183 kts | 154° |
| 2026-04-22 12:59 | 54.53394 | 55.88870 | 639 ft | 172 kts | 152° |
| 2026-04-22 13:00 | 54.52378 | 55.89983 | 897 ft | 173 kts | 153° |
| 2026-04-22 13:00 | 54.51527 | 55.91579 | 1163 ft | 194 kts | 123° |
| 2026-04-22 13:00 | 54.51296 | 55.93885 | 1676 ft | 202 kts | 89° |
| 2026-04-22 13:00 | 54.51792 | 55.96145 | 2105 ft | 207 kts | 57° |
| 2026-04-22 13:01 | 54.52785 | 55.97968 | 2478 ft | 211 kts | 41° |
| 2026-04-22 13:01 | 54.53931 | 55.99666 | 2764 ft | 225 kts | 37° |
| 2026-04-22 13:01 | 54.55212 | 56.01432 | 2968 ft | 245 kts | 36° |
| 2026-04-22 13:01 | 54.56572 | 56.03275 | 3477 ft | 252 kts | 36° |
| 2026-04-22 13:02 | 54.57958 | 56.05157 | 4148 ft | 254 kts | 35° |
| 2026-04-22 13:02 | 54.59389 | 56.06919 | 4784 ft | 255 kts | 25° |
| 2026-04-22 13:02 | 54.60959 | 56.07681 | 5229 ft | 254 kts | 0° |
| 2026-04-22 13:02 | 54.62638 | 56.07323 | 5763 ft | 250 kts | 338° |
| 2026-04-22 13:03 | 54.64215 | 56.06209 | 6443 ft | 246 kts | 330° |
| 2026-04-22 13:03 | 54.65739 | 56.04930 | 7159 ft | 243 kts | 328° |
| 2026-04-22 13:03 | 54.67236 | 56.03570 | 7764 ft | 243 kts | 323° |
| 2026-04-22 13:03 | 54.68468 | 56.01485 | 7881 ft | 256 kts | 299° |
| 2026-04-22 13:04 | 54.69051 | 55.98579 | 8212 ft | 259 kts | 274° |
| 2026-04-22 13:04 | 54.68818 | 55.95528 | 8793 ft | 257 kts | 250° |
| 2026-04-22 13:04 | 54.68072 | 55.92777 | 9375 ft | 248 kts | 243° |
| 2026-04-22 13:04 | 54.67301 | 55.90286 | 10236 ft | 239 kts | 242° |
| 2026-04-22 13:05 | 54.66484 | 55.87706 | 10588 ft | 253 kts | 242° |
| 2026-04-22 13:05 | 54.65612 | 55.84968 | 10866 ft | 267 kts | 242° |
| 2026-04-22 13:05 | 54.64689 | 55.82082 | 11109 ft | 282 kts | 242° |
| 2026-04-22 13:05 | 54.63715 | 55.79046 | 11389 ft | 297 kts | 242° |
| 2026-04-22 13:06 | 54.62685 | 55.75842 | 11621 ft | 312 kts | 242° |
| 2026-04-22 13:06 | 54.61607 | 55.72505 | 11987 ft | 323 kts | 242° |
| 2026-04-22 13:06 | 54.60501 | 55.69088 | 12521 ft | 328 kts | 242° |
| 2026-04-22 13:06 | 54.59398 | 55.65690 | 13156 ft | 331 kts | 242° |
| 2026-04-22 13:07 | 54.58263 | 55.62202 | 13763 ft | 335 kts | 241° |
| 2026-04-22 13:07 | 54.57119 | 55.58688 | 14371 ft | 338 kts | 241° |
| 2026-04-22 13:07 | 54.55959 | 55.55132 | 14991 ft | 341 kts | 241° |
| 2026-04-22 13:07 | 54.54786 | 55.51543 | 15566 ft | 346 kts | 241° |
| 2026-04-22 13:08 | 54.53600 | 55.47921 | 16173 ft | 348 kts | 241° |
| 2026-04-22 13:08 | 54.52404 | 55.44275 | 16698 ft | 352 kts | 240° |
| 2026-04-22 13:08 | 54.51189 | 55.40576 | 17229 ft | 356 kts | 240° |
| 2026-04-22 13:08 | 54.49968 | 55.36867 | 17772 ft | 359 kts | 240° |
| 2026-04-22 13:09 | 54.48728 | 55.33101 | 18251 ft | 363 kts | 240° |
| 2026-04-22 13:09 | 54.47477 | 55.29312 | 18805 ft | 364 kts | 240° |
| 2026-04-22 13:09 | 54.46238 | 55.25559 | 19326 ft | 367 kts | 240° |
| 2026-04-22 13:09 | 54.44968 | 55.21724 | 19801 ft | 370 kts | 240° |
| 2026-04-22 13:10 | 54.43690 | 55.17870 | 20321 ft | 371 kts | 240° |
| 2026-04-22 13:10 | 54.42404 | 55.13999 | 20741 ft | 375 kts | 240° |
| 2026-04-22 13:10 | 54.41107 | 55.10100 | 21201 ft | 376 kts | 240° |
| 2026-04-22 13:10 | 54.39801 | 55.06179 | 21627 ft | 379 kts | 240° |
| 2026-04-22 13:11 | 54.38486 | 55.02241 | 22019 ft | 381 kts | 240° |
| 2026-04-22 13:11 | 54.37162 | 54.98283 | 22422 ft | 383 kts | 239° |
| 2026-04-22 13:11 | 54.35831 | 54.94307 | 22781 ft | 386 kts | 239° |
| 2026-04-22 13:11 | 54.34493 | 54.90316 | 23167 ft | 387 kts | 239° |
| 2026-04-22 13:12 | 54.33162 | 54.86354 | 23436 ft | 391 kts | 239° |
| 2026-04-22 13:12 | 54.31799 | 54.82305 | 23790 ft | 391 kts | 239° |
| 2026-04-22 13:12 | 54.30438 | 54.78265 | 24150 ft | 393 kts | 239° |
| 2026-04-22 13:12 | 54.29060 | 54.74186 | 24342 ft | 397 kts | 239° |
| 2026-04-22 13:13 | 54.27674 | 54.70087 | 24670 ft | 397 kts | 239° |
| 2026-04-22 13:13 | 54.26285 | 54.65989 | 24999 ft | 398 kts | 239° |
| 2026-04-22 13:13 | 54.24885 | 54.61862 | 25138 ft | 403 kts | 239° |
| 2026-04-22 13:13 | 54.23478 | 54.57723 | 25427 ft | 402 kts | 239° |
| 2026-04-22 13:14 | 54.22101 | 54.53560 | 25714 ft | 404 kts | 241° |
| 2026-04-22 13:14 | 54.20867 | 54.49217 | 25854 ft | 407 kts | 244° |
| 2026-04-22 13:14 | 54.19774 | 54.44749 | 26124 ft | 408 kts | 247° |
| 2026-04-22 13:14 | 54.18773 | 54.40287 | 26363 ft | 409 kts | 248° |
| 2026-04-22 13:15 | 54.17568 | 54.35875 | 26407 ft | 413 kts | 237° |
| 2026-04-22 13:15 | 54.15710 | 54.32145 | 26616 ft | 412 kts | 222° |
| 2026-04-22 13:15 | 54.13401 | 54.29276 | 26926 ft | 412 kts | 214° |
| 2026-04-22 13:15 | 54.10944 | 54.26732 | 27069 ft | 415 kts | 211° |
| 2026-04-22 13:16 | 54.08392 | 54.24397 | 27198 ft | 418 kts | 208° |
| 2026-04-22 13:16 | 54.05759 | 54.22278 | 27460 ft | 418 kts | 206° |
| 2026-04-22 13:16 | 54.03052 | 54.20394 | 27624 ft | 421 kts | 203° |
| 2026-04-22 13:16 | 54.00299 | 54.18660 | 27784 ft | 423 kts | 202° |
| 2026-04-22 13:17 | 53.97530 | 54.16957 | 27968 ft | 423 kts | 202° |
| 2026-04-22 13:17 | 53.95096 | 54.15442 | 28139 ft | 424 kts | 202° |
| 2026-04-22 13:17 | 53.91924 | 54.13432 | 28367 ft | 424 kts | 203° |
| 2026-04-22 13:17 | 53.89201 | 54.11683 | 28578 ft | 423 kts | 203° |
| 2026-04-22 13:18 | 53.86460 | 54.09916 | 28812 ft | 422 kts | 203° |
| 2026-04-22 13:18 | 53.83717 | 54.08143 | 29020 ft | 421 kts | 203° |
| 2026-04-22 13:18 | 53.80985 | 54.06374 | 29230 ft | 420 kts | 203° |
| 2026-04-22 13:18 | 53.78258 | 54.04606 | 29446 ft | 419 kts | 203° |
| 2026-04-22 13:19 | 53.75536 | 54.02843 | 29664 ft | 418 kts | 203° |
| 2026-04-22 13:19 | 53.72817 | 54.01083 | 29867 ft | 417 kts | 203° |
| 2026-04-22 13:19 | 53.70102 | 53.99326 | 30063 ft | 416 kts | 203° |
| 2026-04-22 13:19 | 53.67405 | 53.97582 | 30204 ft | 417 kts | 203° |
| 2026-04-22 13:20 | 53.64686 | 53.95825 | 30351 ft | 417 kts | 203° |
| 2026-04-22 13:20 | 53.61976 | 53.94079 | 30502 ft | 417 kts | 203° |
| 2026-04-22 13:20 | 53.60185 | 53.92924 | 30600 ft | 417 kts | 203° |
| 2026-04-22 13:20 | 53.58383 | 53.91763 | 30718 ft | 416 kts | 203° |
| 2026-04-22 13:21 | 53.56600 | 53.90616 | 30842 ft | 416 kts | 203° |
| 2026-04-22 13:21 | 53.51258 | 53.87185 | 31149 ft | 416 kts | 203° |
| 2026-04-22 13:21 | 53.48553 | 53.85452 | 31318 ft | 415 kts | 203° |
| 2026-04-22 13:21 | 53.45851 | 53.83722 | 31466 ft | 415 kts | 203° |
| 2026-04-22 13:22 | 53.43152 | 53.81997 | 31619 ft | 415 kts | 203° |
| 2026-04-22 13:22 | 53.40489 | 53.80297 | 31772 ft | 415 kts | 203° |
| 2026-04-22 13:22 | 53.37788 | 53.78575 | 31770 ft | 416 kts | 203° |
| 2026-04-22 13:23 | 53.32462 | 53.74847 | 31788 ft | 415 kts | 208° |
| 2026-04-22 13:23 | 53.27303 | 53.70526 | 31788 ft | 414 kts | 209° |
| 2026-04-22 13:24 | 53.22153 | 53.66218 | 31787 ft | 414 kts | 208° |
| 2026-04-22 13:24 | 53.17085 | 53.62065 | 31787 ft | 414 kts | 208° |
| 2026-04-22 13:25 | 53.11909 | 53.57862 | 32056 ft | 412 kts | 208° |
| 2026-04-22 13:25 | 53.09341 | 53.55788 | 32284 ft | 409 kts | 208° |
| 2026-04-22 13:25 | 53.06787 | 53.53727 | 32516 ft | 407 kts | 208° |
| 2026-04-22 13:25 | 53.04277 | 53.51709 | 32739 ft | 405 kts | 208° |
| 2026-04-22 13:26 | 53.01731 | 53.49665 | 32739 ft | 409 kts | 208° |
| 2026-04-22 13:26 | 52.96559 | 53.45522 | 32736 ft | 415 kts | 208° |
| 2026-04-22 13:26 | 52.93963 | 53.43448 | 32915 ft | 414 kts | 208° |
| 2026-04-22 13:27 | 52.91367 | 53.41376 | 33036 ft | 414 kts | 208° |
| 2026-04-22 13:27 | 52.88772 | 53.39309 | 33168 ft | 414 kts | 208° |
| 2026-04-22 13:27 | 52.83610 | 53.35204 | 33399 ft | 414 kts | 208° |
| 2026-04-22 13:28 | 52.81016 | 53.33145 | 33523 ft | 413 kts | 208° |
| 2026-04-22 13:28 | 52.78455 | 53.31116 | 33634 ft | 413 kts | 208° |
| 2026-04-22 13:28 | 52.75860 | 53.29062 | 33766 ft | 413 kts | 208° |
| 2026-04-22 13:29 | 52.70742 | 53.25020 | 33789 ft | 414 kts | 208° |
| 2026-04-22 13:29 | 52.65620 | 53.20994 | 33792 ft | 414 kts | 207° |
| 2026-04-22 13:30 | 52.60279 | 53.17387 | 33791 ft | 416 kts | 204° |
| 2026-04-22 13:30 | 52.54966 | 53.14038 | 33792 ft | 416 kts | 204° |
| 2026-04-22 13:31 | 52.44328 | 53.07258 | 33792 ft | 416 kts | 204° |
| 2026-04-22 13:32 | 52.38982 | 53.03840 | 33792 ft | 416 kts | 204° |
| 2026-04-22 13:32 | 52.33551 | 53.00372 | 33792 ft | 416 kts | 204° |
| 2026-04-22 13:33 | 52.28157 | 52.96934 | 33791 ft | 415 kts | 204° |
| 2026-04-22 13:33 | 52.22770 | 52.93508 | 33792 ft | 416 kts | 204° |
| 2026-04-22 13:34 | 52.17410 | 52.90105 | 33792 ft | 416 kts | 204° |
| 2026-04-22 13:34 | 52.12013 | 52.86691 | 33792 ft | 416 kts | 204° |
| 2026-04-22 13:35 | 52.06613 | 52.83282 | 33792 ft | 416 kts | 204° |
| 2026-04-22 13:35 | 52.01219 | 52.79886 | 33791 ft | 416 kts | 204° |
| 2026-04-22 13:36 | 51.96733 | 52.77068 | 33789 ft | 414 kts | 204° |
| 2026-04-22 13:36 | 51.91349 | 52.73694 | 33793 ft | 415 kts | 204° |
| 2026-04-22 13:37 | 51.85558 | 52.70075 | 33792 ft | 415 kts | 204° |
| 2026-04-22 13:37 | 51.80263 | 52.66774 | 33791 ft | 415 kts | 204° |
| 2026-04-22 13:38 | 51.74867 | 52.63419 | 33756 ft | 416 kts | 204° |
| 2026-04-22 13:38 | 51.69454 | 52.60061 | 33278 ft | 416 kts | 204° |
| 2026-04-22 13:38 | 51.66782 | 52.58407 | 33036 ft | 416 kts | 204° |
| 2026-04-22 13:39 | 51.64043 | 52.56714 | 32826 ft | 416 kts | 204° |
| 2026-04-22 13:39 | 51.61371 | 52.55064 | 32800 ft | 417 kts | 204° |
| 2026-04-22 13:39 | 51.55895 | 52.51975 | 32790 ft | 419 kts | 194° |
| 2026-04-22 13:40 | 51.50015 | 52.51609 | 32799 ft | 428 kts | 183° |
| 2026-04-22 13:40 | 51.44052 | 52.52107 | 32789 ft | 428 kts | 181° |
| 2026-04-22 13:41 | 51.38101 | 52.52828 | 32790 ft | 429 kts | 180° |
| 2026-04-22 13:41 | 51.32129 | 52.53583 | 32790 ft | 430 kts | 180° |
| 2026-04-22 13:42 | 51.26173 | 52.54324 | 32793 ft | 429 kts | 180° |
| 2026-04-22 13:42 | 51.20320 | 52.55045 | 32790 ft | 430 kts | 181° |
| 2026-04-22 13:43 | 51.14355 | 52.55777 | 32784 ft | 429 kts | 181° |
| 2026-04-22 13:43 | 51.08435 | 52.56501 | 32794 ft | 429 kts | 181° |
| 2026-04-22 13:44 | 51.02483 | 52.57225 | 32795 ft | 429 kts | 181° |
| 2026-04-22 13:44 | 50.96530 | 52.57948 | 32794 ft | 429 kts | 181° |
| 2026-04-22 13:45 | 50.90571 | 52.58669 | 32789 ft | 429 kts | 181° |
| 2026-04-22 13:45 | 50.84612 | 52.59296 | 32797 ft | 428 kts | 184° |
| 2026-04-22 13:46 | 50.78689 | 52.59067 | 32800 ft | 424 kts | 189° |
| 2026-04-22 13:46 | 50.72859 | 52.58330 | 32796 ft | 423 kts | 189° |
| 2026-04-22 13:47 | 50.66985 | 52.57688 | 32796 ft | 424 kts | 188° |
| 2026-04-22 13:47 | 50.61092 | 52.57176 | 32799 ft | 424 kts | 188° |
| 2026-04-22 13:48 | 50.55195 | 52.56701 | 32799 ft | 424 kts | 188° |
| 2026-04-22 13:48 | 50.49297 | 52.56235 | 32798 ft | 425 kts | 188° |
| 2026-04-22 13:49 | 50.43397 | 52.55777 | 32800 ft | 424 kts | 188° |
| 2026-04-22 13:49 | 50.37496 | 52.55322 | 32801 ft | 424 kts | 188° |
| 2026-04-22 13:50 | 50.31636 | 52.54871 | 32801 ft | 424 kts | 188° |
| 2026-04-22 13:50 | 50.25739 | 52.54420 | 32801 ft | 424 kts | 188° |
| 2026-04-22 13:51 | 50.19843 | 52.53970 | 32796 ft | 424 kts | 188° |
| 2026-04-22 13:51 | 50.13949 | 52.53521 | 32802 ft | 424 kts | 188° |
| 2026-04-22 13:52 | 50.08055 | 52.53072 | 32807 ft | 424 kts | 188° |
| 2026-04-22 13:52 | 50.02155 | 52.52625 | 32805 ft | 424 kts | 188° |
| 2026-04-22 13:53 | 49.96291 | 52.52182 | 32807 ft | 425 kts | 188° |
| 2026-04-22 13:53 | 49.90415 | 52.51739 | 32809 ft | 424 kts | 188° |
| 2026-04-22 13:54 | 49.84507 | 52.51295 | 32810 ft | 425 kts | 188° |
| 2026-04-22 13:54 | 49.78608 | 52.50853 | 32811 ft | 425 kts | 188° |
| 2026-04-22 13:55 | 49.72698 | 52.50410 | 32812 ft | 425 kts | 188° |
| 2026-04-22 13:55 | 49.66790 | 52.49969 | 32815 ft | 425 kts | 188° |
| 2026-04-22 13:56 | 49.60887 | 52.49529 | 32816 ft | 425 kts | 188° |
| 2026-04-22 13:56 | 49.54971 | 52.49090 | 32823 ft | 425 kts | 188° |
| 2026-04-22 13:57 | 49.49095 | 52.48655 | 32821 ft | 425 kts | 188° |
| 2026-04-22 13:57 | 49.43179 | 52.48217 | 32820 ft | 426 kts | 188° |
| 2026-04-22 13:58 | 49.37251 | 52.47780 | 32823 ft | 426 kts | 188° |
| 2026-04-22 13:58 | 49.31329 | 52.47343 | 32826 ft | 426 kts | 188° |
| 2026-04-22 13:59 | 49.25411 | 52.46909 | 32828 ft | 426 kts | 188° |
| 2026-04-22 13:59 | 49.19530 | 52.46479 | 32828 ft | 426 kts | 188° |
| 2026-04-22 14:00 | 49.13599 | 52.46046 | 32828 ft | 426 kts | 188° |
| 2026-04-22 14:00 | 49.07679 | 52.45614 | 32824 ft | 425 kts | 188° |
| 2026-04-22 14:01 | 49.01763 | 52.45184 | 32837 ft | 425 kts | 188° |
| 2026-04-22 14:01 | 48.95840 | 52.44934 | 32838 ft | 427 kts | 185° |
| 2026-04-22 14:02 | 48.89908 | 52.45502 | 32839 ft | 432 kts | 181° |
| 2026-04-22 14:02 | 48.83916 | 52.46315 | 32841 ft | 432 kts | 181° |
| 2026-04-22 14:03 | 48.77914 | 52.47008 | 32844 ft | 432 kts | 182° |
| 2026-04-22 14:03 | 48.71914 | 52.47615 | 32847 ft | 431 kts | 182° |
| 2026-04-22 14:04 | 48.65926 | 52.48203 | 32850 ft | 432 kts | 182° |
| 2026-04-22 14:04 | 48.59927 | 52.48785 | 32851 ft | 432 kts | 183° |
| 2026-04-22 14:05 | 48.53966 | 52.49358 | 32852 ft | 432 kts | 183° |
| 2026-04-22 14:06 | 48.46091 | 52.50110 | 32856 ft | 431 kts | 183° |
| 2026-04-22 14:06 | 48.39120 | 52.50774 | 32856 ft | 431 kts | 183° |
| 2026-04-22 14:07 | 48.33131 | 52.51343 | 32856 ft | 431 kts | 183° |
| 2026-04-22 14:07 | 48.28138 | 52.51816 | 32857 ft | 431 kts | 183° |
| 2026-04-22 14:08 | 48.22140 | 52.52381 | 32863 ft | 431 kts | 183° |
| 2026-04-22 14:08 | 48.16157 | 52.52945 | 32861 ft | 430 kts | 183° |
| 2026-04-22 14:09 | 48.10172 | 52.53508 | 32862 ft | 431 kts | 183° |
| 2026-04-22 14:09 | 48.04194 | 52.54068 | 32866 ft | 431 kts | 183° |
| 2026-04-22 14:10 | 47.98203 | 52.54630 | 32863 ft | 431 kts | 183° |
| 2026-04-22 14:10 | 47.92209 | 52.55191 | 32873 ft | 431 kts | 183° |
| 2026-04-22 14:11 | 47.86214 | 52.55748 | 32870 ft | 432 kts | 183° |
| 2026-04-22 14:11 | 47.80217 | 52.56305 | 32863 ft | 432 kts | 183° |
| 2026-04-22 14:12 | 47.74211 | 52.56861 | 32873 ft | 433 kts | 183° |
| 2026-04-22 14:12 | 47.68244 | 52.57219 | 32866 ft | 427 kts | 191° |
| 2026-04-22 14:12 | 47.65394 | 52.56245 | 32889 ft | 416 kts | 206° |
| 2026-04-22 14:13 | 47.62857 | 52.54270 | 32880 ft | 410 kts | 217° |
| 2026-04-22 14:13 | 47.58309 | 52.49263 | 32863 ft | 405 kts | 223° |
| 2026-04-22 14:14 | 47.54200 | 52.43594 | 32872 ft | 402 kts | 229° |
| 2026-04-22 14:14 | 47.50451 | 52.37461 | 32872 ft | 401 kts | 231° |
| 2026-04-22 14:15 | 47.46719 | 52.31317 | 32874 ft | 401 kts | 230° |
| 2026-04-22 14:15 | 47.42948 | 52.25236 | 32879 ft | 401 kts | 230° |
| 2026-04-22 14:16 | 47.39158 | 52.19179 | 32874 ft | 401 kts | 229° |
| 2026-04-22 14:16 | 47.35356 | 52.13135 | 32873 ft | 401 kts | 229° |